Time,TemperatureF,DewpointF,PressureIn,WindDirection,WindDirectionDegrees,WindSpeedMPH,WindSpeedGustMPH,Humidity,HourlyPrecipIn,Conditions,Clouds,dailyrainin,SoftwareType,DateUTC
2013-01-20 00:04:00,33.0,32.0,29.92,WSW,244,0.0,-999.0,96,-99.99,,,-99.99,,2013-01-20 05:04:00,
2013-01-20 00:12:00,33.0,32.0,29.92,WSW,244,0.0,-999.0,96,-99.99,,,-99.99,,2013-01-20 05:12:00,
2013-01-20 00:22:00,34.0,33.0,29.91,WSW,244,0.0,-999.0,96,-99.99,,,-99.99,,2013-01-20 05:22:00,
2013-01-20 00:33:00,34.0,33.0,29.90,WSW,244,0.0,-999.0,96,-99.99,,,-99.99,,2013-01-20 05:33:00,
2013-01-20 00:43:00,34.0,33.0,29.90,WSW,244,0.0,-999.0,96,-99.99,,,-99.99,,2013-01-20 05:43:00,
2013-01-20 00:53:00,34.0,33.0,29.90,WSW,244,0.0,-999.0,96,-99.99,,,-99.99,,2013-01-20 05:53:00,
2013-01-20 01:02:00,35.0,34.0,29.89,WSW,244,0.0,-999.0,96,-99.99,,,-99.99,,2013-01-20 06:02:00,
2013-01-20 01:12:00,35.0,34.0,29.89,WSW,244,0.0,-999.0,96,-99.99,,,-99.99,,2013-01-20 06:12:00,
2013-01-20 01:22:00,34.0,33.0,29.89,WSW,244,0.0,-999.0,96,-99.99,,,-99.99,,2013-01-20 06:22:00,
2013-01-20 01:33:00,34.0,33.0,29.89,WSW,244,0.0,-999.0,96,-99.99,,,-99.99,,2013-01-20 06:33:00,
2013-01-20 01:43:00,34.0,33.0,29.89,WSW,244,0.0,-999.0,96,-99.99,,,-99.99,,2013-01-20 06:43:00,
2013-01-20 01:52:00,34.0,33.0,29.89,WSW,244,0.0,-999.0,96,-99.99,,,-99.99,,2013-01-20 06:52:00,
2013-01-20 17:33:00,42.0,28.0,29.53,West,260,8.0,-999.0,57,-99.99,,,-99.99,,2013-01-20 22:33:00,
2013-01-20 17:43:00,42.0,28.0,29.53,West,260,8.0,-999.0,57,-99.99,,,-99.99,,2013-01-20 22:43:00,
2013-01-20 17:53:00,42.0,28.0,29.53,West,264,7.0,-999.0,57,-99.99,,,-99.99,,2013-01-20 22:53:00,
2013-01-20 18:03:00,42.0,26.0,29.54,WSW,256,8.0,-999.0,53,-99.99,,,-99.99,,2013-01-20 23:03:00,
2013-01-20 18:13:00,42.0,26.0,29.54,WSW,256,8.0,-999.0,53,-99.99,,,-99.99,,2013-01-20 23:13:00,
2013-01-20 18:23:00,42.0,22.0,29.55,NW,313,11.0,-999.0,45,-99.99,,,-99.99,,2013-01-20 23:23:00,
2013-01-20 18:33:00,41.0,20.0,29.56,NW,313,10.0,-999.0,42,-99.99,,,-99.99,,2013-01-20 23:33:00,
2013-01-20 18:43:00,41.0,20.0,29.56,NW,313,10.0,-999.0,42,-99.99,,,-99.99,,2013-01-20 23:43:00,
2013-01-20 18:53:00,41.0,19.0,29.57,West,272,12.0,-999.0,41,-99.99,,,-99.99,,2013-01-20 23:53:00,
2013-01-20 19:03:00,40.0,19.0,29.58,West,280,13.0,-999.0,42,-99.99,,,-99.99,,2013-01-21 00:03:00,
2013-01-20 19:13:00,40.0,19.0,29.58,West,280,13.0,-999.0,42,-99.99,,,-99.99,,2013-01-21 00:13:00,
2013-01-20 19:23:00,40.0,17.0,29.58,WNW,291,15.0,-999.0,39,-99.99,,,-99.99,,2013-01-21 00:23:00,
2013-01-20 19:33:00,39.0,19.0,29.59,WSW,251,11.0,-999.0,44,-99.99,,,-99.99,,2013-01-21 00:33:00,
2013-01-20 19:43:00,39.0,19.0,29.59,WSW,251,11.0,-999.0,44,-99.99,,,-99.99,,2013-01-21 00:43:00,
2013-01-20 19:53:00,38.0,18.0,29.61,WNW,295,12.0,-999.0,43,-99.99,,,-99.99,,2013-01-21 00:53:00,
2013-01-20 20:03:00,38.0,15.0,29.62,WNW,298,14.0,-999.0,38,-99.99,,,-99.99,,2013-01-21 01:03:00,
2013-01-20 20:13:00,38.0,15.0,29.62,WNW,298,14.0,-999.0,38,-99.99,,,-99.99,,2013-01-21 01:13:00,
2013-01-20 20:23:00,37.0,15.0,29.62,WNW,296,13.0,-999.0,40,-99.99,,,-99.99,,2013-01-21 01:23:00,
2013-01-20 20:33:00,37.0,14.0,29.62,West,263,14.0,-999.0,39,-99.99,,,-99.99,,2013-01-21 01:33:00,
2013-01-20 20:43:00,37.0,14.0,29.62,West,263,14.0,-999.0,39,-99.99,,,-99.99,,2013-01-21 01:43:00,
2013-01-20 20:53:00,37.0,14.0,29.62,West,263,14.0,-999.0,39,-99.99,,,-99.99,,2013-01-21 01:53:00,
2013-01-20 21:03:00,37.0,14.0,29.62,West,263,14.0,-999.0,39,-99.99,,,-99.99,,2013-01-21 02:03:00,
2013-01-20 21:33:00,34.0,13.0,29.67,West,261,11.0,-999.0,41,-99.99,,,-99.99,,2013-01-21 02:33:00,
2013-01-20 21:43:00,34.0,13.0,29.67,West,261,11.0,-999.0,41,-99.99,,,-99.99,,2013-01-21 02:43:00,
2013-01-20 21:53:00,33.0,12.0,29.68,WNW,285,10.0,-999.0,42,-99.99,,,-99.99,,2013-01-21 02:53:00,
2013-01-20 22:03:00,32.0,13.0,29.69,West,281,7.0,-999.0,44,-99.99,,,-99.99,,2013-01-21 03:03:00,
2013-01-20 22:13:00,32.0,13.0,29.69,West,281,7.0,-999.0,44,-99.99,,,-99.99,,2013-01-21 03:13:00,
2013-01-20 22:23:00,32.0,12.0,29.70,West,281,10.0,-999.0,43,-99.99,,,-99.99,,2013-01-21 03:23:00,
2013-01-20 22:33:00,31.0,16.0,29.72,North,360,9.0,-999.0,53,-99.99,,,-99.99,,2013-01-21 03:33:00,
2013-01-20 22:43:00,31.0,16.0,29.72,North,360,9.0,-999.0,53,-99.99,,,-99.99,,2013-01-21 03:43:00,
2013-01-20 22:54:00,29.0,15.0,29.72,NW,318,11.0,-999.0,56,-99.99,,,-99.99,,2013-01-21 03:54:00,
2013-01-20 23:03:00,29.0,14.0,29.72,NW,320,9.0,-999.0,54,-99.99,,,-99.99,,2013-01-21 04:03:00,
2013-01-20 23:13:00,29.0,14.0,29.72,NW,320,9.0,-999.0,54,-99.99,,,-99.99,,2013-01-21 04:13:00,
2013-01-20 23:23:00,27.0,11.0,29.74,NW,306,9.0,-999.0,51,-99.99,,,-99.99,,2013-01-21 04:23:00,
2013-01-20 23:33:00,26.0,9.0,29.76,NNW,340,8.0,-999.0,48,-99.99,,,-99.99,,2013-01-21 04:33:00,
2013-01-20 23:43:00,26.0,9.0,29.76,NNW,340,8.0,-999.0,48,-99.99,,,-99.99,,2013-01-21 04:43:00,
2013-01-20 23:53:00,26.0,9.0,29.77,NNW,332,10.0,-999.0,47,-99.99,,,-99.99,,2013-01-21 04:53:00,